createdAt,value
2022-08-02T00:00:57.281Z,48.68
2022-08-02T00:03:24.803Z,48.77
2022-08-02T00:05:53.238Z,48.80
2022-08-02T00:08:21.771Z,49.26
2022-08-02T00:10:49.813Z,49.07
2022-08-02T00:13:17.230Z,49.03
2022-08-02T00:15:44.151Z,49.21
2022-08-02T00:18:11.296Z,49.31
2022-08-02T00:20:38.261Z,49.50
2022-08-02T00:23:05.242Z,49.56
2022-08-02T00:25:32.223Z,49.57
2022-08-02T00:27:59.184Z,49.80
2022-08-02T00:30:26.220Z,50.02
2022-08-02T00:32:53.355Z,49.94
2022-08-02T00:35:20.583Z,50.00
2022-08-02T00:37:47.784Z,50.04
2022-08-02T00:40:15.123Z,50.18
2022-08-02T00:42:42.263Z,50.43
2022-08-02T00:45:09.631Z,50.49
2022-08-02T00:47:36.821Z,50.46
2022-08-02T00:50:04.765Z,50.63
2022-08-02T00:52:31.746Z,50.63
2022-08-02T00:54:58.773Z,50.56
2022-08-02T00:57:25.726Z,50.78
2022-08-02T00:59:52.721Z,50.48
2022-08-02T01:02:20.095Z,50.66
2022-08-02T01:04:47.166Z,50.43
2022-08-02T01:07:14.729Z,50.48
2022-08-02T01:09:42.870Z,50.53
2022-08-02T01:12:11.098Z,50.64
2022-08-02T01:14:40.802Z,50.67
2022-08-02T01:17:15.779Z,50.79
2022-08-02T01:20:05.671Z,51.02
2022-08-02T01:22:59.897Z,50.86
2022-08-02T01:26:07.667Z,50.79
2022-08-02T01:28:51.196Z,50.85
2022-08-02T01:31:24.231Z,51.17
2022-08-02T01:34:14.395Z,51.28
2022-08-02T01:36:47.045Z,50.73
2022-08-02T01:39:26.726Z,50.81
2022-08-02T01:42:01.188Z,50.76
2022-08-02T01:44:30.618Z,50.98
2022-08-02T01:47:03.550Z,51.18
2022-08-02T01:49:34.809Z,51.16
2022-08-02T01:52:21.790Z,50.85
2022-08-02T01:55:03.841Z,51.43
2022-08-02T01:57:45.609Z,51.49
2022-08-02T02:00:13.856Z,50.62
2022-08-02T02:02:45.171Z,51.25
2022-08-02T02:05:16.472Z,50.96
2022-08-02T02:07:45.955Z,50.75
2022-08-02T02:10:19.327Z,51.31
2022-08-02T02:12:49.552Z,50.46
2022-08-02T02:15:42.048Z,50.62
2022-08-02T02:18:13.760Z,50.87
2022-08-02T02:20:43.005Z,51.01
2022-08-02T02:23:11.541Z,50.69
2022-08-02T02:25:46.933Z,51.18
2022-08-02T02:28:22.506Z,51.44
2022-08-02T02:30:53.458Z,51.25
2022-08-02T02:33:26.414Z,51.24
2022-08-02T02:35:58.285Z,51.38
2022-08-02T02:38:29.762Z,51.46
2022-08-02T02:41:00.825Z,51.51
2022-08-02T02:43:31.368Z,51.56
2022-08-02T02:45:59.323Z,51.34
2022-08-02T02:48:27.993Z,51.35
2022-08-02T02:50:55.810Z,51.83
2022-08-02T02:53:23.309Z,51.31
2022-08-02T02:56:02.015Z,51.68
2022-08-02T02:58:31.848Z,51.46
2022-08-02T03:01:17.320Z,51.44
2022-08-02T03:03:45.155Z,51.19
2022-08-02T03:06:15.773Z,51.44
2022-08-02T03:08:43.932Z,51.33
2022-08-02T03:11:12.471Z,51.03
2022-08-02T03:13:40.255Z,51.14
2022-08-02T03:16:07.699Z,51.07
2022-08-02T03:18:40.378Z,51.10
2022-08-02T03:21:11.772Z,50.90
2022-08-02T03:23:40.614Z,50.87
2022-08-02T03:26:08.674Z,50.74
2022-08-02T03:28:35.877Z,50.40
2022-08-02T03:31:03.136Z,50.26
2022-08-02T03:33:31.744Z,50.45
2022-08-02T03:36:01.998Z,50.32
2022-08-02T03:38:30.653Z,50.06
2022-08-02T03:40:59.044Z,50.01
2022-08-02T03:43:28.710Z,49.88
2022-08-02T03:45:59.074Z,49.73
2022-08-02T03:48:33.831Z,49.77
2022-08-02T03:51:03.256Z,49.34
2022-08-02T03:53:30.719Z,49.46
2022-08-02T03:55:59.217Z,49.28
2022-08-02T03:58:26.942Z,49.17
2022-08-02T04:00:56.154Z,49.09
2022-08-02T04:03:23.598Z,49.41
2022-08-02T04:06:01.046Z,49.55
2022-08-02T04:08:36.943Z,49.55
2022-08-02T04:11:24.844Z,49.42
2022-08-02T04:13:52.431Z,49.48
2022-08-02T04:16:41.620Z,49.32
2022-08-02T04:19:17.344Z,49.34
2022-08-02T04:21:51.658Z,49.06
2022-08-02T04:24:28.074Z,48.78
2022-08-02T04:26:57.907Z,48.88
2022-08-02T04:29:34.583Z,48.43
2022-08-02T04:32:02.931Z,48.18
2022-08-02T04:34:38.221Z,48.07
2022-08-02T04:37:31.919Z,48.11
2022-08-02T04:40:01.454Z,47.77
2022-08-02T04:42:37.742Z,47.91
2022-08-02T04:45:06.490Z,47.56
2022-08-02T04:48:02.491Z,47.46
2022-08-02T04:50:21.350Z,47.20
2022-08-02T04:52:49.177Z,46.82
2022-08-02T04:55:16.249Z,46.65
2022-08-02T04:57:55.745Z,46.52
2022-08-02T05:00:23.089Z,46.41
2022-08-02T05:02:54.250Z,46.41
2022-08-02T05:05:21.833Z,46.18
2022-08-02T05:07:57.658Z,46.05
2022-08-02T05:19:37.457Z,45.65
2022-08-02T05:22:09.599Z,45.79
2022-08-02T05:25:40.489Z,45.79
2022-08-02T05:32:54.506Z,45.58
2022-08-02T05:50:36.208Z,45.16
2022-08-02T05:53:47.601Z,45.15
2022-08-02T06:15:18.566Z,44.22
2022-08-02T06:19:07.707Z,44.00
2022-08-02T08:04:37.568Z,39.62
2022-08-02T08:21:21.427Z,38.06
2022-08-02T09:11:08.941Z,37.10
2022-08-02T09:14:34.202Z,36.90
2022-08-02T09:32:52.749Z,34.73
2022-08-02T09:44:36.460Z,34.18
2022-08-02T09:55:32.786Z,33.73
2022-08-02T09:59:24.448Z,33.44
2022-08-02T10:35:26.901Z,33.77
2022-08-02T10:38:28.524Z,33.59
2022-08-02T10:51:15.986Z,32.34
2022-08-02T11:01:40.915Z,31.95
2022-08-02T11:04:44.152Z,31.69
2022-08-02T11:07:40.577Z,31.71
2022-08-02T11:11:53.999Z,31.46
2022-08-02T11:14:15.043Z,31.22
2022-08-02T11:16:57.738Z,31.51
2022-08-02T11:23:44.837Z,32.11
2022-08-02T11:30:16.344Z,31.93
2022-08-02T11:32:44.066Z,31.88
2022-08-02T11:35:12.064Z,31.47
2022-08-02T11:37:41.650Z,31.25
2022-08-02T11:40:19.571Z,30.86
2022-08-02T11:42:51.319Z,30.64
2022-08-02T11:45:29.986Z,30.32
2022-08-02T11:47:57.682Z,30.06
2022-08-02T11:50:29.910Z,29.90
2022-08-02T11:52:58.131Z,29.87
2022-08-02T11:55:32.119Z,29.41
2022-08-02T11:58:01.821Z,29.91
2022-08-02T12:00:32.516Z,30.00
2022-08-02T12:02:59.991Z,29.85
2022-08-02T12:08:19.332Z,29.49
2022-08-02T12:10:50.283Z,29.10
2022-08-02T12:13:17.546Z,28.58
2022-08-02T12:15:47.474Z,28.28
2022-08-02T12:18:38.340Z,28.02
2022-08-02T12:21:22.841Z,26.01
2022-08-02T12:24:00.887Z,26.03
2022-08-02T12:26:30.151Z,25.11
2022-08-02T12:29:01.679Z,23.69
2022-08-02T12:31:56.084Z,22.94
2022-08-02T12:34:31.413Z,22.73
2022-08-02T12:37:05.972Z,22.12
2022-08-02T12:39:35.186Z,21.75
2022-08-02T12:42:17.129Z,21.57
2022-08-02T12:44:54.741Z,21.24
2022-08-02T12:47:22.401Z,21.46
2022-08-02T12:50:29.674Z,21.73
2022-08-02T12:53:11.785Z,21.30
2022-08-02T12:56:01.999Z,21.17
2022-08-02T12:58:31.971Z,21.33
2022-08-02T13:01:02.217Z,21.43
2022-08-02T13:04:09.361Z,21.32
2022-08-02T13:06:41.002Z,20.57
2022-08-02T13:09:13.728Z,20.00
2022-08-02T13:11:43.534Z,19.88
2022-08-02T13:14:12.351Z,20.55
2022-08-02T13:16:42.913Z,20.96
2022-08-02T13:19:15.874Z,21.62
2022-08-02T13:22:02.707Z,22.41
2022-08-02T13:24:40.095Z,22.97
2022-08-02T13:27:21.293Z,23.49
2022-08-02T13:29:51.226Z,23.65
2022-08-02T13:32:19.028Z,23.79
2022-08-02T13:34:47.512Z,23.53
2022-08-02T13:37:15.881Z,23.16
2022-08-02T13:40:20.045Z,22.87
2022-08-02T13:45:54.374Z,21.66
2022-08-02T13:48:25.424Z,21.15
2022-08-02T13:50:53.407Z,21.23
2022-08-02T13:53:24.316Z,21.49
2022-08-02T13:55:56.032Z,21.56
2022-08-02T13:58:24.507Z,22.04
2022-08-02T14:00:52.092Z,22.91
2022-08-02T14:03:20.309Z,23.55
2022-08-02T14:05:49.059Z,24.12
2022-08-02T14:08:23.193Z,24.43
2022-08-02T14:10:52.171Z,24.88
2022-08-02T14:16:54.248Z,25.13
2022-08-02T14:19:24.607Z,25.72
2022-08-02T14:21:54.167Z,25.50
2022-08-02T14:24:40.206Z,25.81
2022-08-02T14:27:08.318Z,25.38
2022-08-02T14:29:36.401Z,25.21
2022-08-02T14:32:04.961Z,24.93
2022-08-02T14:34:32.725Z,24.60
2022-08-02T14:37:00.395Z,23.56
2022-08-02T14:39:28.191Z,23.44
2022-08-02T14:42:13.531Z,23.54
2022-08-02T14:44:44.420Z,23.51
2022-08-02T14:47:11.983Z,23.43
2022-08-02T14:49:41.845Z,23.24
2022-08-02T14:52:11.029Z,23.48
2022-08-02T14:54:41.216Z,23.23
2022-08-02T14:57:09.851Z,23.53
2022-08-02T14:59:37.431Z,23.51
2022-08-02T15:02:13.482Z,23.17
2022-08-02T15:04:43.255Z,23.12
2022-08-02T15:07:12.310Z,22.75
2022-08-02T15:09:40.134Z,23.04
2022-08-02T15:12:09.266Z,22.89
2022-08-02T15:14:37.088Z,22.88
2022-08-02T15:17:05.279Z,22.85
2022-08-02T15:19:57.932Z,22.60
2022-08-02T15:22:20.323Z,22.06
2022-08-02T15:24:48.445Z,22.18
2022-08-02T15:27:17.146Z,21.85
2022-08-02T15:29:47.408Z,21.27
2022-08-02T15:32:18.563Z,21.32
2022-08-02T15:34:46.660Z,21.08
2022-08-02T15:37:13.891Z,21.17
2022-08-02T15:39:41.645Z,20.68
2022-08-02T15:42:08.903Z,20.79
2022-08-02T15:44:38.859Z,20.16
2022-08-02T15:47:08.260Z,20.43
2022-08-02T15:49:40.687Z,20.30
2022-08-02T15:52:08.710Z,19.86
2022-08-02T15:54:36.071Z,19.96
2022-08-02T15:57:06.181Z,19.68
2022-08-02T15:59:33.780Z,19.70
2022-08-02T16:02:01.057Z,19.65
2022-08-02T16:04:28.296Z,20.09
2022-08-02T16:06:55.577Z,20.58
2022-08-02T16:09:23.039Z,20.87
2022-08-02T16:11:50.196Z,20.90
2022-08-02T16:14:17.247Z,21.09
2022-08-02T16:16:44.997Z,21.12
2022-08-02T16:19:47.462Z,21.16
2022-08-02T16:21:59.112Z,21.34
2022-08-02T16:24:27.119Z,20.97
2022-08-02T16:26:54.121Z,21.33
2022-08-02T16:29:21.176Z,21.20
2022-08-02T16:31:48.551Z,21.37
2022-08-02T16:34:16.574Z,21.56
2022-08-02T16:36:46.010Z,21.59
2022-08-02T16:39:13.497Z,21.82
2022-08-02T16:41:50.650Z,21.79
2022-08-02T16:44:27.694Z,22.07
2022-08-02T16:47:07.372Z,22.49
2022-08-02T16:50:05.987Z,22.39
2022-08-02T16:52:22.467Z,22.75
2022-08-02T16:54:50.059Z,22.69
2022-08-02T16:57:19.653Z,22.75
2022-08-02T16:59:58.270Z,23.09
2022-08-02T17:02:26.672Z,23.57
2022-08-02T17:04:55.298Z,23.56
2022-08-02T17:08:15.613Z,23.70
2022-08-02T17:10:09.879Z,24.02
2022-08-02T17:12:38.334Z,24.70
2022-08-02T17:16:08.454Z,25.23
2022-08-02T17:17:56.862Z,25.50
2022-08-02T17:20:25.293Z,26.55
2022-08-02T17:22:52.994Z,26.90
2022-08-02T17:25:20.932Z,27.85
2022-08-02T17:27:52.967Z,28.13
2022-08-02T17:30:26.796Z,28.99
2022-08-02T17:32:57.680Z,29.33
2022-08-02T17:38:17.893Z,30.25
2022-08-02T17:40:53.791Z,30.69
2022-08-02T17:43:22.012Z,31.01
2022-08-02T17:46:00.910Z,31.72
2022-08-02T17:48:54.965Z,31.74
2022-08-02T17:52:16.019Z,32.06
2022-08-02T17:54:18.811Z,33.40
2022-08-02T17:56:49.763Z,33.37
2022-08-02T17:59:22.414Z,33.64
2022-08-02T18:02:03.547Z,34.06
2022-08-02T18:04:32.230Z,34.14
2022-08-02T18:07:03.816Z,34.71
2022-08-02T18:09:32.425Z,34.75
2022-08-02T18:12:01.792Z,35.12
2022-08-02T18:14:29.319Z,35.25
2022-08-02T18:16:56.580Z,35.27
2022-08-02T18:19:42.179Z,35.54
2022-08-02T18:22:10.509Z,35.69
2022-08-02T18:24:38.185Z,35.88
2022-08-02T18:27:08.030Z,36.55
2022-08-02T18:29:38.431Z,36.40
2022-08-02T18:32:11.789Z,36.64
2022-08-02T18:34:52.544Z,37.62
2022-08-02T18:37:19.911Z,37.08
2022-08-02T18:39:51.173Z,37.35
2022-08-02T18:42:19.005Z,37.70
2022-08-02T18:44:45.999Z,37.78
2022-08-02T18:47:15.701Z,37.98
2022-08-02T18:49:46.620Z,38.24
2022-08-02T18:52:15.736Z,38.77
2022-08-02T18:54:55.095Z,38.97
2022-08-02T18:58:18.760Z,39.02
2022-08-02T19:00:33.020Z,39.24
2022-08-02T19:03:00.246Z,39.35
2022-08-02T19:05:51.587Z,39.53
2022-08-02T19:08:18.323Z,39.75
2022-08-02T19:10:49.042Z,40.02
2022-08-02T19:13:17.545Z,40.34
2022-08-02T19:15:46.425Z,40.65
2022-08-02T19:18:15.089Z,40.88
2022-08-02T19:20:48.059Z,41.22
2022-08-02T19:23:17.515Z,41.28
2022-08-02T19:25:54.418Z,41.42
2022-08-02T19:31:10.745Z,41.78
2022-08-02T19:34:05.954Z,42.09
2022-08-02T19:36:25.887Z,42.25
2022-08-02T19:38:55.856Z,42.49
2022-08-02T19:41:24.379Z,42.60
2022-08-02T19:44:24.378Z,42.79
2022-08-02T19:46:41.655Z,42.63
2022-08-02T19:49:20.140Z,43.02
2022-08-02T19:51:56.352Z,42.91
2022-08-02T19:54:54.147Z,43.10
2022-08-02T19:57:13.794Z,43.16
2022-08-02T19:59:47.306Z,43.48
2022-08-02T20:02:28.523Z,44.32
2022-08-02T20:04:57.393Z,43.69
2022-08-02T20:07:53.094Z,43.82
2022-08-02T20:10:13.519Z,43.78
2022-08-02T20:12:54.531Z,43.95
2022-08-02T20:15:56.131Z,44.16
2022-08-02T20:18:26.815Z,44.03
2022-08-02T20:21:07.623Z,43.68
2022-08-02T20:23:54.820Z,43.85
2022-08-02T20:26:21.985Z,44.28
2022-08-02T20:28:49.036Z,44.49
2022-08-02T20:31:18.356Z,44.85
2022-08-02T20:36:42.310Z,44.69
2022-08-02T20:39:09.525Z,44.72
2022-08-02T20:41:45.553Z,44.67
2022-08-02T20:44:31.331Z,44.52
2022-08-02T20:47:01.302Z,44.62
2022-08-02T20:49:40.254Z,44.58
2022-08-02T20:52:23.118Z,44.76
2022-08-02T20:54:50.660Z,45.02
2022-08-02T20:57:17.780Z,45.13
2022-08-02T20:59:44.952Z,44.85
2022-08-02T21:02:20.042Z,44.83
2022-08-02T21:04:48.808Z,44.86
2022-08-02T21:07:19.163Z,44.87
2022-08-02T21:09:53.382Z,45.30
2022-08-02T21:12:29.758Z,45.29
2022-08-02T21:14:59.632Z,45.48
2022-08-02T21:17:37.341Z,45.43
2022-08-02T21:20:16.726Z,45.49
2022-08-02T21:22:44.752Z,45.63
2022-08-02T21:25:15.728Z,45.86
2022-08-02T21:27:53.198Z,46.05
2022-08-02T21:30:25.691Z,46.04
2022-08-02T21:32:57.569Z,45.79
2022-08-02T21:35:25.824Z,45.79
2022-08-02T21:37:58.114Z,45.79
2022-08-02T21:40:25.918Z,45.97
2022-08-02T21:42:54.531Z,45.90
2022-08-02T21:45:21.891Z,45.97
2022-08-02T21:47:49.122Z,46.01
2022-08-02T21:50:18.027Z,46.07
2022-08-02T21:52:52.417Z,46.30
2022-08-02T21:55:21.282Z,46.31
2022-08-02T21:57:51.596Z,46.47
2022-08-02T22:00:28.631Z,46.79
2022-08-02T22:02:56.609Z,46.76
2022-08-02T22:05:23.977Z,46.87
2022-08-02T22:07:52.643Z,46.94
2022-08-02T22:10:21.891Z,47.10
2022-08-02T22:12:49.226Z,47.20
2022-08-02T22:15:17.000Z,47.11
2022-08-02T22:18:00.012Z,47.52
2022-08-02T22:20:29.254Z,47.18
2022-08-02T22:22:59.638Z,47.42
2022-08-02T22:28:38.502Z,47.60
2022-08-02T22:31:06.848Z,47.64
2022-08-02T22:34:01.284Z,47.82
2022-08-02T22:36:31.227Z,47.79
2022-08-02T22:39:00.243Z,47.94
2022-08-02T22:42:01.553Z,48.07
2022-08-02T22:44:18.391Z,48.13
2022-08-02T22:46:46.775Z,48.43
2022-08-02T22:52:05.152Z,48.48
2022-08-02T22:54:33.097Z,48.57
2022-08-02T22:57:00.816Z,48.79
2022-08-02T22:58:39.206Z,29.92
2022-08-02T22:58:55.697Z,44.58
2022-08-02T22:58:59.955Z,41.53
2022-08-02T22:59:04.824Z,47.46
2022-08-02T22:59:38.850Z,49.06
2022-08-02T23:02:07.805Z,49.24
2022-08-02T23:04:35.193Z,49.42
2022-08-02T23:07:03.221Z,49.58
2022-08-02T23:09:30.882Z,49.26
2022-08-02T23:11:58.362Z,49.33
2022-08-02T23:14:29.474Z,49.95
2022-08-02T23:17:16.737Z,49.80
2022-08-02T23:19:53.187Z,49.63
2022-08-02T23:22:30.120Z,49.95
2022-08-02T23:25:01.888Z,49.92
2022-08-02T23:27:32.356Z,50.05
2022-08-02T23:30:00.750Z,49.99
2022-08-02T23:32:29.151Z,49.88
2022-08-02T23:34:57.660Z,50.23
2022-08-02T23:37:25.782Z,50.46
2022-08-02T23:39:55.696Z,50.22
2022-08-02T23:42:25.523Z,50.45
2022-08-02T23:44:53.063Z,50.63
2022-08-02T23:47:20.604Z,50.61
2022-08-02T23:49:47.769Z,50.43
2022-08-02T23:52:15.235Z,50.34
2022-08-02T23:54:42.655Z,50.31
2022-08-02T23:57:20.202Z,50.36
2022-08-02T23:59:50.189Z,50.47
